Time;durP1;ratioP1;P1;durP2;ratioP2;P2;SDS_P1;SDS_P2;PMS_P1;PMS_P2;Temp;Humidity;BMP_temperature;BMP_pressure;BME280_temperature;BME280_humidity;BME280_pressure;Samples;Min_cycle;Max_cycle;Signal;HPM_P1;HPM_P2
2023/08/05 00:00:19;;;;;;;21.13;11.18;;;13.70;99.90;;;;;;4936821;29;20044;-86
2023/08/05 00:03:06;;;;;;;17.67;10.02;;;13.70;99.90;;;;;;4929580;29;20051;-85
2023/08/05 00:05:55;;;;;;;16.17;10.48;;;13.80;99.90;;;;;;4929187;29;20055;-86
2023/08/05 00:08:43;;;;;;;17.73;10.45;;;13.70;99.90;;;;;;4941669;29;20041;-88
2023/08/05 00:11:31;;;;;;;16.08;10.85;;;13.70;99.90;;;;;;4942922;29;20467;-87
2023/08/05 00:14:18;;;;;;;15.98;10.73;;;13.70;99.90;;;;;;4935870;29;20094;-88
2023/08/05 00:17:14;;;;;;;17.92;11.18;;;13.70;99.90;;;;;;4937138;29;20052;-88
2023/08/05 00:20:08;;;;;;;18.88;10.18;;;13.70;99.90;;;;;;4942718;29;20048;-88
2023/08/05 00:22:55;;;;;;;15.93;10.43;;;13.70;99.90;;;;;;4942039;29;20078;-88
2023/08/05 00:25:42;;;;;;;13.95;10.15;;;13.70;99.90;;;;;;4932176;29;20179;-87
2023/08/05 00:28:29;;;;;;;20.95;10.30;;;13.70;99.90;;;;;;4933109;29;20466;-88
2023/08/05 00:31:17;;;;;;;16.70;10.10;;;13.70;99.90;;;;;;4929091;29;20544;-89
2023/08/05 00:34:04;;;;;;;21.02;10.88;;;13.60;99.90;;;;;;4934650;29;20040;-88
2023/08/05 00:36:53;;;;;;;15.65;10.32;;;13.60;99.90;;;;;;4943713;29;20364;-89
2023/08/05 00:39:45;;;;;;;14.35;9.40;;;13.60;99.90;;;;;;4936206;29;20356;-88
2023/08/05 00:42:32;;;;;;;16.70;10.52;;;13.70;99.90;;;;;;4933888;29;20067;-85
2023/08/05 00:45:22;;;;;;;19.65;9.95;;;13.60;99.90;;;;;;4937155;29;20044;-87
2023/08/05 00:48:10;;;;;;;16.63;9.60;;;13.60;99.90;;;;;;4923765;29;20039;-88
2023/08/05 00:50:59;;;;;;;13.63;10.13;;;13.60;99.90;;;;;;4925344;29;20058;-88
2023/08/05 00:53:52;;;;;;;14.23;9.63;;;13.60;99.90;;;;;;4948768;29;20039;-88
2023/08/05 00:56:40;;;;;;;15.23;9.68;;;13.60;99.90;;;;;;4947014;29;20039;-88
2023/08/05 00:59:30;;;;;;;16.00;10.00;;;13.50;99.90;;;;;;4947410;29;20044;-87
2023/08/05 01:02:17;;;;;;;18.05;10.05;;;13.50;99.90;;;;;;4947620;29;20093;-87
2023/08/05 01:05:23;;;;;;;14.73;9.75;;;13.40;99.90;;;;;;4947086;29;20062;-87
2023/08/05 01:08:11;;;;;;;13.20;9.23;;;13.40;99.90;;;;;;4936603;29;20155;-87
2023/08/05 01:11:00;;;;;;;17.25;10.48;;;13.40;99.90;;;;;;4936312;29;20051;-88
2023/08/05 01:13:50;;;;;;;18.53;9.70;;;13.30;99.90;;;;;;4926691;29;20459;-88
2023/08/05 01:16:37;;;;;;;14.30;9.60;;;13.30;99.90;;;;;;4937566;29;20314;-86
2023/08/05 01:19:32;;;;;;;16.27;10.52;;;13.20;99.90;;;;;;4940176;29;20051;-88
2023/08/05 01:22:41;;;;;;;18.20;9.98;;;13.20;99.90;;;;;;4952039;29;20062;-88
2023/08/05 01:25:32;;;;;;;13.93;10.38;;;13.10;99.90;;;;;;4938954;29;20147;-87
2023/08/05 01:28:23;;;;;;;16.77;9.95;;;13.00;99.90;;;;;;4951302;29;20054;-88
2023/08/05 01:31:11;;;;;;;18.02;10.23;;;12.90;99.90;;;;;;4938355;29;20063;-89
2023/08/05 01:34:02;;;;;;;14.40;10.60;;;12.90;99.90;;;;;;4936810;29;20039;-87
2023/08/05 01:36:51;;;;;;;16.27;10.88;;;12.80;99.90;;;;;;4939345;29;20466;-88
2023/08/05 01:39:39;;;;;;;18.13;10.77;;;12.80;99.90;;;;;;4939324;29;20050;-88
2023/08/05 01:42:31;;;;;;;14.45;10.45;;;12.80;99.90;;;;;;4938684;29;20060;-88
2023/08/05 01:45:19;;;;;;;17.77;10.30;;;12.80;99.90;;;;;;4937008;29;20058;-88
2023/08/05 01:48:06;;;;;;;18.65;10.20;;;12.70;99.90;;;;;;4939585;29;20066;-88
2023/08/05 01:50:58;;;;;;;16.05;10.07;;;12.70;99.90;;;;;;4939045;29;20067;-88
2023/08/05 01:53:46;;;;;;;20.57;11.30;;;12.70;99.90;;;;;;4939186;29;20156;-89
2023/08/05 01:56:33;;;;;;;17.10;10.75;;;12.70;99.90;;;;;;4935197;29;20414;-88
2023/08/05 01:59:22;;;;;;;18.90;10.88;;;12.80;99.90;;;;;;4942097;29;20054;-88
2023/08/05 02:02:13;;;;;;;17.48;10.73;;;12.80;99.90;;;;;;4919679;29;20123;-89
2023/08/05 02:05:00;;;;;;;21.40;11.40;;;12.90;99.90;;;;;;4931528;29;20052;-88
2023/08/05 02:07:56;;;;;;;19.05;11.02;;;13.00;99.90;;;;;;4943347;28;20083;-88
2023/08/05 02:10:44;;;;;;;15.73;10.73;;;13.10;99.90;;;;;;4920849;29;20412;-87
2023/08/05 02:13:33;;;;;;;20.60;10.27;;;13.10;99.90;;;;;;4936839;29;20048;-88
2023/08/05 02:16:20;;;;;;;18.02;10.52;;;13.10;99.90;;;;;;4939869;29;20048;-88
2023/08/05 02:19:08;;;;;;;20.58;10.43;;;13.10;99.90;;;;;;4937909;29;20051;-89
2023/08/05 02:22:00;;;;;;;17.48;10.07;;;13.10;99.90;;;;;;4943032;29;20496;-87
2023/08/05 02:24:59;;;;;;;19.05;10.63;;;13.00;99.90;;;;;;4940351;29;20067;-89
2023/08/05 02:27:46;;;;;;;14.43;9.95;;;13.00;99.90;;;;;;4928243;28;20104;-89
2023/08/05 02:30:36;;;;;;;19.13;10.90;;;12.90;99.90;;;;;;4949356;29;20143;-88
2023/08/05 02:33:26;;;;;;;15.82;10.30;;;12.80;99.90;;;;;;4931032;29;20058;-88
2023/08/05 02:36:13;;;;;;;15.38;10.45;;;12.80;99.90;;;;;;4932607;29;20059;-87
2023/08/05 02:39:00;;;;;;;20.50;10.63;;;12.80;99.90;;;;;;4951055;29;20043;-87
2023/08/05 02:42:04;;;;;;;17.63;11.65;;;12.90;99.90;;;;;;4931914;29;20044;-89
2023/08/05 02:44:52;;;;;;;17.15;11.00;;;13.00;99.90;;;;;;4927744;29;20096;-89
2023/08/05 02:47:39;;;;;;;18.88;10.75;;;13.00;99.90;;;;;;4925924;29;20063;-87
2023/08/05 02:50:26;;;;;;;16.17;10.50;;;13.00;99.90;;;;;;4938696;29;20139;-88
2023/08/05 02:53:13;;;;;;;17.40;11.13;;;13.10;99.90;;;;;;4923813;29;20047;-85
2023/08/05 02:56:01;;;;;;;15.63;10.38;;;13.10;99.90;;;;;;4942628;29;20059;-86
2023/08/05 02:58:49;;;;;;;19.05;10.57;;;13.20;99.90;;;;;;4938948;29;20451;-86
2023/08/05 03:01:36;;;;;;;12.00;8.68;;;13.20;99.90;;;;;;4925426;29;20486;-87
2023/08/05 03:04:23;;;;;;;18.15;9.77;;;13.30;99.90;;;;;;4946335;29;20048;-88
2023/08/05 03:07:10;;;;;;;15.43;9.43;;;13.30;99.90;;;;;;4943727;29;20051;-86
2023/08/05 03:09:57;;;;;;;16.23;10.30;;;13.30;99.90;;;;;;4942769;29;20055;-87
2023/08/05 03:12:45;;;;;;;18.15;9.95;;;13.30;99.90;;;;;;4937656;29;20077;-88
2023/08/05 03:15:32;;;;;;;14.75;9.23;;;13.30;99.90;;;;;;4934737;29;20048;-88
2023/08/05 03:18:29;;;;;;;16.02;9.35;;;13.30;99.90;;;;;;4944458;29;20050;-88
2023/08/05 03:21:18;;;;;;;18.00;9.65;;;13.30;99.90;;;;;;4922232;29;20048;-88
2023/08/05 03:24:05;;;;;;;16.88;9.88;;;13.30;99.90;;;;;;4929732;29;20494;-87
2023/08/05 03:26:53;;;;;;;11.90;8.85;;;13.30;99.90;;;;;;4938201;29;20510;-87
2023/08/05 03:29:40;;;;;;;12.38;8.90;;;13.40;99.90;;;;;;4935535;29;20052;-88
2023/08/05 03:32:28;;;;;;;15.15;9.13;;;13.30;99.90;;;;;;4936906;29;20043;-88
2023/08/05 03:35:17;;;;;;;18.60;9.77;;;13.40;99.90;;;;;;4951205;28;20069;-87
2023/08/05 03:38:05;;;;;;;16.17;9.70;;;13.30;99.90;;;;;;4929890;29;20035;-87
2023/08/05 03:40:52;;;;;;;14.65;9.70;;;13.40;99.90;;;;;;4941430;29;20439;-88
2023/08/05 03:43:39;;;;;;;16.92;9.73;;;13.40;99.90;;;;;;4939601;29;20048;-87
2023/08/05 03:46:27;;;;;;;21.25;10.65;;;13.40;99.90;;;;;;4937219;29;20051;-89
2023/08/05 03:49:17;;;;;;;15.15;9.65;;;13.40;99.90;;;;;;4941108;29;20056;-87
2023/08/05 03:52:05;;;;;;;18.98;10.23;;;13.40;99.90;;;;;;4935827;29;20062;-87
2023/08/05 03:54:53;;;;;;;13.57;9.60;;;13.40;99.90;;;;;;4922841;29;20040;-88
2023/08/05 03:57:40;;;;;;;16.08;10.20;;;13.40;99.90;;;;;;4935712;29;20130;-88
2023/08/05 04:01:02;;;;;;;15.02;10.05;;;13.40;99.90;;;;;;4930501;29;20126;-85
2023/08/05 04:07:57;;;;;;;16.83;10.75;;;13.30;99.90;;;;;;4938476;29;20040;-88
2023/08/05 04:10:45;;;;;;;15.85;10.05;;;13.30;99.90;;;;;;4944036;29;20063;-86
2023/08/05 04:13:37;;;;;;;13.63;10.05;;;13.30;99.90;;;;;;4930813;29;20043;-88
2023/08/05 04:16:24;;;;;;;15.93;9.55;;;13.30;99.90;;;;;;4929556;29;20047;-88
2023/08/05 04:19:11;;;;;;;16.13;10.48;;;13.30;99.90;;;;;;4914076;29;20054;-86
2023/08/05 04:22:01;;;;;;;15.15;9.98;;;13.30;99.90;;;;;;4927493;29;20050;-86
2023/08/05 04:24:49;;;;;;;18.92;10.65;;;13.30;99.90;;;;;;4935204;29;20056;-89
2023/08/05 04:27:37;;;;;;;20.65;10.05;;;13.30;99.90;;;;;;4930999;29;20055;-88
2023/08/05 04:30:48;;;;;;;16.15;10.18;;;13.30;99.90;;;;;;4934833;29;20051;-86
2023/08/05 04:33:42;;;;;;;12.70;9.57;;;13.30;99.90;;;;;;4935988;29;20059;-88
2023/08/05 04:36:35;;;;;;;17.17;11.30;;;13.30;99.90;;;;;;4937832;29;20071;-87
2023/08/05 04:39:22;;;;;;;16.52;10.73;;;13.30;99.90;;;;;;4944072;29;20463;-88
2023/08/05 04:42:09;;;;;;;15.73;10.38;;;13.30;99.90;;;;;;4927116;29;20805;-88
2023/08/05 04:45:24;;;;;;;18.58;10.20;;;13.30;99.90;;;;;;4925404;29;20066;-85
2023/08/05 04:48:14;;;;;;;14.98;9.75;;;13.30;99.90;;;;;;4931387;29;20062;-86
2023/08/05 04:51:01;;;;;;;12.10;9.65;;;13.30;99.90;;;;;;4943292;29;20363;-89
2023/08/05 04:53:50;;;;;;;29.83;10.75;;;13.40;99.90;;;;;;4943873;29;20179;-88
2023/08/05 04:56:38;;;;;;;17.90;10.05;;;13.40;99.90;;;;;;4941326;29;20048;-89
2023/08/05 04:59:25;;;;;;;15.30;9.68;;;13.40;99.90;;;;;;4921410;28;20048;-87
2023/08/05 05:02:15;;;;;;;14.35;9.63;;;13.40;99.90;;;;;;4938241;29;20074;-88
2023/08/05 05:05:04;;;;;;;15.43;9.80;;;13.40;99.90;;;;;;4926775;29;20068;-88
2023/08/05 05:07:59;;;;;;;15.50;9.30;;;13.40;99.90;;;;;;4931374;29;20070;-88
2023/08/05 05:10:49;;;;;;;13.90;9.43;;;13.50;99.90;;;;;;4939446;29;20127;-89
2023/08/05 05:13:38;;;;;;;13.63;8.82;;;13.50;99.90;;;;;;4943590;28;20048;-88
2023/08/05 05:16:25;;;;;;;18.67;10.40;;;13.50;99.90;;;;;;4940492;29;20059;-88
2023/08/05 05:19:13;;;;;;;17.85;9.70;;;13.60;99.90;;;;;;4931286;29;20046;-89
2023/08/05 05:22:02;;;;;;;15.88;10.23;;;13.60;99.90;;;;;;4928722;29;20402;-86
2023/08/05 05:24:50;;;;;;;15.40;9.40;;;13.60;99.90;;;;;;4923426;29;20055;-88
2023/08/05 05:27:37;;;;;;;13.35;9.15;;;13.60;99.90;;;;;;4937365;29;20122;-87
2023/08/05 05:30:25;;;;;;;16.10;9.25;;;13.70;99.90;;;;;;4937407;29;20126;-88
2023/08/05 05:33:15;;;;;;;17.85;10.32;;;13.70;99.90;;;;;;4930426;29;20131;-88
2023/08/05 05:36:03;;;;;;;19.08;10.35;;;13.80;99.90;;;;;;4940083;29;20040;-89
2023/08/05 05:38:52;;;;;;;13.30;9.15;;;13.80;99.90;;;;;;4951723;29;20451;-88
2023/08/05 05:41:43;;;;;;;19.88;10.00;;;13.80;99.90;;;;;;4939827;29;20043;-88
2023/08/05 05:44:30;;;;;;;14.65;9.07;;;13.80;99.90;;;;;;4945601;28;20479;-87
2023/08/05 05:47:23;;;;;;;13.70;9.77;;;13.80;99.90;;;;;;4942342;28;20048;-88
2023/08/05 05:50:10;;;;;;;18.45;9.52;;;13.80;99.90;;;;;;4944839;29;20046;-87
2023/08/05 05:52:58;;;;;;;11.45;9.10;;;13.80;99.90;;;;;;4943503;29;20079;-85
2023/08/05 05:55:52;;;;;;;19.70;10.40;;;13.80;99.90;;;;;;4950713;29;20051;-86
2023/08/05 05:58:40;;;;;;;18.98;11.07;;;13.80;99.90;;;;;;4945558;29;20058;-86
2023/08/05 06:01:27;;;;;;;14.65;8.45;;;13.80;99.90;;;;;;4946782;29;20059;-86
2023/08/05 06:04:14;;;;;;;13.10;9.10;;;13.90;99.90;;;;;;4946065;29;20063;-87
2023/08/05 06:07:03;;;;;;;16.17;9.52;;;14.00;99.90;;;;;;4939718;29;20056;-85
2023/08/05 06:09:50;;;;;;;12.63;8.43;;;14.00;99.90;;;;;;4933795;29;20076;-86
2023/08/05 06:12:42;;;;;;;12.82;8.32;;;14.10;99.90;;;;;;4946724;28;20100;-87
2023/08/05 06:15:32;;;;;;;12.88;9.45;;;14.20;99.90;;;;;;4937132;29;20054;-89
2023/08/05 06:18:22;;;;;;;15.82;8.55;;;14.20;99.90;;;;;;4941679;29;20040;-88
2023/08/05 06:21:09;;;;;;;14.13;8.68;;;14.30;99.90;;;;;;4931398;29;20044;-87
2023/08/05 06:23:59;;;;;;;14.55;8.10;;;14.40;99.90;;;;;;4934672;29;20053;-87
2023/08/05 06:26:46;;;;;;;10.68;7.63;;;14.50;99.90;;;;;;4941769;29;20044;-85
2023/08/05 06:29:34;;;;;;;13.23;8.05;;;14.60;99.90;;;;;;4936924;29;20055;-84
2023/08/05 06:32:24;;;;;;;11.52;6.97;;;14.80;99.90;;;;;;4933988;29;20054;-82
2023/08/05 06:35:14;;;;;;;11.48;8.10;;;15.00;1.00;;;;;;4950332;29;20047;-83
2023/08/05 06:38:01;;;;;;;12.98;6.80;;;15.10;99.90;;;;;;4936511;29;20048;-87
2023/08/05 06:40:51;;;;;;;15.00;6.82;;;15.30;99.90;;;;;;4939029;29;20050;-90
2023/08/05 06:43:38;;;;;;;13.00;5.75;;;15.40;1.00;;;;;;4937181;29;20043;-91
2023/08/05 06:46:26;;;;;;;11.75;6.05;;;15.50;99.90;;;;;;4938505;29;20069;-89
2023/08/05 06:49:13;;;;;;;9.73;6.72;;;15.70;1.00;;;;;;4922740;29;20055;-92
2023/08/05 06:52:00;;;;;;;9.25;6.60;;;15.80;98.00;;;;;;4920864;29;20059;-92
2023/08/05 06:54:47;;;;;;;12.60;5.97;;;15.90;99.90;;;;;;4938070;29;20047;-91
2023/08/05 06:57:36;;;;;;;8.60;5.65;;;16.10;1.00;;;;;;4928242;29;20091;-90
2023/08/05 07:00:27;;;;;;;8.93;6.13;;;16.30;1.00;;;;;;4926834;29;20048;-90
2023/08/05 07:03:15;;;;;;;6.40;5.28;;;16.40;1.00;;;;;;4943882;29;20104;-91
2023/08/05 07:06:02;;;;;;;7.53;5.47;;;16.60;1.00;;;;;;4921984;29;20475;-91
2023/08/05 07:08:51;;;;;;;12.10;5.88;;;16.70;99.90;;;;;;4941494;29;20063;-89
2023/08/05 07:11:38;;;;;;;8.57;5.32;;;16.80;1.00;;;;;;4924418;29;20127;-92
2023/08/05 07:14:26;;;;;;;8.82;5.50;;;16.90;1.00;;;;;;4940318;28;20044;-90
2023/08/05 07:17:15;;;;;;;6.53;4.50;;;17.10;99.90;;;;;;4925031;29;20039;-91
2023/08/05 07:20:04;;;;;;;8.05;5.15;;;17.40;99.90;;;;;;4949329;29;20456;-90
2023/08/05 07:22:52;;;;;;;5.93;4.82;;;17.60;1.00;;;;;;4931432;29;20387;-91
2023/08/05 07:25:42;;;;;;;11.05;4.97;;;17.80;99.90;;;;;;4927077;29;20479;-90
2023/08/05 07:28:31;;;;;;;5.78;4.32;;;17.80;99.90;;;;;;4936225;29;20424;-92
2023/08/05 07:31:18;;;;;;;6.70;4.15;;;17.80;99.90;;;;;;4937402;29;20059;-91
2023/08/05 07:34:15;;;;;;;7.50;4.13;;;18.10;99.90;;;;;;4940029;29;20042;-90
2023/08/05 07:37:04;;;;;;;5.30;4.10;;;18.40;99.90;;;;;;4927585;29;20070;-91
2023/08/05 07:39:51;;;;;;;4.10;3.30;;;18.40;99.90;;;;;;4914351;29;20044;-92
2023/08/05 07:42:42;;;;;;;6.75;3.88;;;18.60;1.00;;;;;;4938058;29;20179;-91
2023/08/05 07:45:33;;;;;;;8.68;4.13;;;18.80;99.90;;;;;;4940210;29;20051;-91
2023/08/05 07:48:21;;;;;;;9.13;3.80;;;18.90;99.90;;;;;;4933459;29;20048;-92
2023/08/05 07:51:11;;;;;;;7.00;3.97;;;19.00;99.90;;;;;;4913265;29;20107;-92
2023/08/05 07:53:59;;;;;;;6.78;3.53;;;19.00;99.90;;;;;;4910371;29;20062;-92
2023/08/05 07:56:48;;;;;;;5.18;3.60;;;19.30;99.90;;;;;;4921046;29;20154;-92
2023/08/05 07:59:36;;;;;;;4.05;3.50;;;19.30;99.90;;;;;;4949345;28;20055;-92
2023/08/05 08:02:24;;;;;;;3.92;3.10;;;19.40;99.90;;;;;;4944415;29;20059;-91
2023/08/05 08:05:14;;;;;;;4.10;2.85;;;19.40;99.90;;;;;;4923771;29;20095;-93
2023/08/05 08:08:02;;;;;;;6.60;3.05;;;19.60;99.90;;;;;;4952138;29;20130;-91
2023/08/05 08:10:51;;;;;;;4.82;2.97;;;19.70;99.90;;;;;;4942689;29;20066;-91
2023/08/05 08:13:39;;;;;;;7.13;3.55;;;20.00;96.90;;;;;;4924485;29;20052;-91
2023/08/05 08:16:27;;;;;;;3.85;3.05;;;20.30;6.10;;;;;;4955663;29;20055;-92
2023/08/05 08:19:18;;;;;;;5.00;2.53;;;20.40;1.00;;;;;;4945976;28;20074;-93
2023/08/05 08:22:06;;;;;;;3.33;2.75;;;20.50;1.00;;;;;;4932195;29;20058;-92
2023/08/05 08:24:53;;;;;;;4.35;2.53;;;20.60;1.00;;;;;;4952629;28;20060;-91
2023/08/05 08:27:41;;;;;;;5.95;3.22;;;21.10;1.00;;;;;;4925543;29;20482;-92
2023/08/05 08:30:33;;;;;;;4.15;2.78;;;21.70;1.00;;;;;;4928369;29;20058;-93
2023/08/05 08:33:30;;;;;;;3.88;2.22;;;22.10;1.00;;;;;;4926007;29;20474;-91
2023/08/05 08:36:20;;;;;;;4.68;2.45;;;22.40;99.90;;;;;;4937453;29;20043;-93
2023/08/05 08:39:08;;;;;;;2.78;2.42;;;22.70;99.90;;;;;;4926473;29;20060;-90
2023/08/05 08:41:56;;;;;;;7.15;2.78;;;22.20;99.90;;;;;;4941842;29;20131;-92
2023/08/05 09:01:45;;;;;;;;;;;;;;;;;;;;;
2023/08/05 09:06:00;;;;;;;3.08;2.10;;;23.50;99.90;;;;;;4776141;30;20085;-89
2023/08/05 09:13:56;;;;;;;;;;;;;;;;;;;;;
2023/08/05 09:17:28;;;;;;;;;;;;;;;;;;;;;
2023/08/05 09:21:11;;;;;;;;;;;;;;;;;;;;;
2023/08/05 09:25:01;;;;;;;2.92;1.58;;;24.10;99.90;;;;;;4735210;30;20053;-85
2023/08/05 09:32:08;;;;;;;2.55;1.10;;;25.40;99.90;;;;;;4736170;30;20132;-89
2023/08/05 09:36:04;;;;;;;;;;;;;;;;;;;;;
2023/08/05 09:40:15;;;;;;;4.38;1.45;;;27.70;99.90;;;;;;4735962;30;20056;-90
2023/08/05 09:43:45;;;;;;;;;;;;;;;;;;;;;
2023/08/05 09:47:22;;;;;;;;;;;;;;;;;;;;;
2023/08/05 09:50:20;;;;;;;2.25;1.38;;;28.60;98.20;;;;;;4832750;29;20058;-88
2023/08/05 09:53:29;;;;;;;1.67;1.15;;;28.10;95.40;;;;;;4871724;29;20100;-88
2023/08/05 10:01:07;;;;;;;;;;;;;;;;;;;;;
2023/08/05 10:04:01;;;;;;;1.52;1.30;;;28.50;34.50;;;;;;4726021;30;20056;-90
2023/08/05 10:10:24;;;;;;;7.15;2.28;;;25.30;44.90;;;;;;4676269;30;20051;-90
2023/08/05 10:13:58;;;;;;;;;;;;;;;;;;;;;
2023/08/05 10:17:04;;;;;;;3.50;1.48;;;22.00;48.70;;;;;;4798822;29;20043;-90
2023/08/05 10:20:29;;;;;;;;;;;;;;;;;;;;;
2023/08/05 10:23:18;;;;;;;4.03;2.00;;;22.00;72.80;;;;;;4819038;29;20057;-91
2023/08/05 10:26:47;;;;;;;2.30;1.63;;;22.10;73.70;;;;;;4864256;29;20073;-90
2023/08/05 10:30:06;;;;;;;2.80;1.55;;;22.00;80.10;;;;;;4869729;29;20054;-90
2023/08/05 10:33:28;;;;;;;3.28;1.80;;;21.90;92.00;;;;;;4873178;29;20213;-88
2023/08/05 10:41:02;;;;;;;;;;;;;;;;;;;;;
2023/08/05 10:43:59;;;;;;;3.55;1.75;;;26.20;77.20;;;;;;4870679;29;20089;-90
2023/08/05 10:46:53;;;;;;;2.90;1.40;;;26.20;61.30;;;;;;4847777;29;20037;-87
2023/08/05 10:50:09;;;;;;;4.30;1.90;;;25.30;58.80;;;;;;4869804;29;20385;-89
2023/08/05 10:53:10;;;;;;;2.85;1.70;;;25.00;58.80;;;;;;4870934;29;20066;-91
2023/08/05 10:55:59;;;;;;;1.95;1.75;;;24.90;57.50;;;;;;4863709;29;20049;-90
2023/08/05 10:58:48;;;;;;;3.72;2.00;;;24.40;55.70;;;;;;4887953;29;20079;-90
2023/08/05 11:02:31;;;;;;;5.72;2.03;;;23.20;63.50;;;;;;4871329;29;20060;-91
2023/08/05 11:05:23;;;;;;;3.70;2.08;;;22.70;73.30;;;;;;4866853;29;20045;-88
2023/08/05 11:08:28;;;;;;;4.32;2.30;;;22.20;75.00;;;;;;4873069;29;20085;-88
2023/08/05 11:11:23;;;;;;;2.22;1.80;;;21.80;92.80;;;;;;4882461;29;20057;-89
2023/08/05 11:14:29;;;;;;;;;;;;;;;;;;;;;
2023/08/05 11:17:28;;;;;;;5.03;2.58;;;21.40;99.90;;;;;;4873864;29;20464;-91
2023/08/05 11:21:05;;;;;;;3.15;2.10;;;21.00;93.10;;;;;;4814255;29;20054;-86
2023/08/05 11:24:02;;;;;;;3.50;2.20;;;20.80;98.50;;;;;;4836716;29;20060;-91
2023/08/05 11:27:01;;;;;;;4.10;1.73;;;20.90;98.30;;;;;;4890576;29;20053;-87
2023/08/05 11:29:51;;;;;;;3.60;2.00;;;20.80;99.90;;;;;;4872944;29;20053;-87
2023/08/05 11:32:55;;;;;;;3.10;1.77;;;20.60;99.90;;;;;;4867917;29;20053;-89
2023/08/05 11:36:01;;;;;;;2.78;1.70;;;20.90;99.90;;;;;;4884277;29;20116;-88
2023/08/05 11:39:28;;;;;;;2.38;2.10;;;21.30;99.90;;;;;;4879024;29;20034;-83
2023/08/05 11:43:04;;;;;;;;;;;;;;;;;;;;;
2023/08/05 11:50:41;;;;;;;5.78;1.90;;;21.50;99.90;;;;;;4780744;29;21188;-89
2023/08/05 11:53:39;;;;;;;;;;;;;;;;;;;;;
2023/08/05 11:56:31;;;;;;;4.55;2.60;;;20.80;99.90;;;;;;4792414;29;20062;-88
2023/08/05 11:59:56;;;;;;;;;;;;;;;;;;;;;
2023/08/05 12:03:08;;;;;;;1.98;1.85;;;20.40;99.90;;;;;;4785975;30;20066;-86
2023/08/05 12:06:33;;;;;;;3.08;2.10;;;20.10;99.90;;;;;;4785048;30;20110;-87
2023/08/05 12:13:53;;;;;;;2.45;2.25;;;20.10;99.90;;;;;;4777841;29;20156;-89
2023/08/05 12:18:06;;;;;;;;;;;;;;;;;;;;;
2023/08/05 12:28:29;;;;;;;;;;;;;;;;;;;;;
2023/08/05 12:31:41;;;;;;;4.93;2.33;;;19.90;99.90;;;;;;4826880;29;20463;-90
2023/08/05 12:35:12;;;;;;;6.50;2.50;;;19.90;99.90;;;;;;4862154;29;20045;-90
2023/08/05 12:38:46;;;;;;;5.85;2.40;;;19.80;99.90;;;;;;4870429;29;20225;-90
2023/08/05 12:42:09;;;;;;;12.48;3.65;;;19.70;99.90;;;;;;4826151;29;20057;-92
2023/08/05 12:45:27;;;;;;;7.75;3.38;;;19.70;99.90;;;;;;4863291;29;20485;-89
2023/08/05 12:48:39;;;;;;;3.45;2.38;;;19.70;99.90;;;;;;4858471;29;20110;-90
2023/08/05 12:52:01;;;;;;;;;;;;;;;;;;;;;
2023/08/05 12:55:13;;;;;;;;;;;;;;;;;;;;;
2023/08/05 12:59:01;;;;;;;6.15;2.78;;;20.20;99.90;;;;;;4877421;29;20056;-88
2023/08/05 13:01:46;;;;;;;3.65;2.38;;;20.80;99.90;;;;;;4872464;29;20045;-88
2023/08/05 13:04:44;;;;;;;;;;;;;;;;;;;;;
2023/08/05 13:08:28;;;;;;;7.85;2.78;;;21.40;99.90;;;;;;4875315;29;20053;-90
2023/08/05 13:11:55;;;;;;;3.15;2.47;;;21.80;95.60;;;;;;4881894;29;20060;-86
2023/08/05 13:14:46;;;;;;;5.03;2.20;;;22.80;86.80;;;;;;4863302;29;20042;-89
2023/08/05 13:17:45;;;;;;;;;;;;;;;;;;;;;
2023/08/05 13:20:39;;;;;;;4.85;1.83;;;25.30;98.50;;;;;;4867292;29;20067;-89
2023/08/05 13:23:26;;;;;;;1.65;1.40;;;27.60;82.50;;;;;;4864945;29;20053;-91
2023/08/05 13:26:13;;;;;;;7.85;1.40;;;28.80;60.90;;;;;;4867946;29;20050;-90
2023/08/05 13:29:05;;;;;;;1.90;1.58;;;29.50;46.80;;;;;;4858047;29;20152;-89
2023/08/05 13:31:53;;;;;;;;;;;29.70;25.60;;;;;;4851442;29;20052;-89
2023/08/05 13:34:40;;;;;;;2.60;1.80;;;28.70;22.40;;;;;;4867130;29;19939;-87
2023/08/05 13:37:28;;;;;;;3.03;1.75;;;26.50;13.40;;;;;;4873163;29;20072;-90
2023/08/05 13:40:16;;;;;;;3.63;1.60;;;25.40;15.60;;;;;;4866949;29;20170;-89
2023/08/05 13:43:05;;;;;;;3.00;1.63;;;25.50;14.50;;;;;;4865370;29;20090;-87
2023/08/05 13:45:58;;;;;;;2.63;1.70;;;25.80;13.50;;;;;;4878665;29;20053;-90
2023/08/05 13:48:48;;;;;;;2.42;1.70;;;25.70;17.90;;;;;;4871183;29;20416;-87
2023/08/05 13:51:35;;;;;;;5.70;2.67;;;26.00;16.40;;;;;;4862092;29;20050;-88
2023/08/05 13:54:22;;;;;;;2.33;1.70;;;26.20;9.80;;;;;;4866212;29;20090;-88
2023/08/05 13:57:12;;;;;;;2.45;1.70;;;26.00;5.90;;;;;;4871663;29;20087;-89
2023/08/05 13:59:59;;;;;;;5.15;1.75;;;25.00;3.00;;;;;;4867414;29;20345;-89
2023/08/05 14:02:47;;;;;;;3.35;2.17;;;24.00;4.50;;;;;;4875758;29;20041;-88
2023/08/05 14:05:34;;;;;;;2.55;1.83;;;23.40;6.30;;;;;;4868676;29;20106;-90
2023/08/05 14:08:22;;;;;;;4.65;1.90;;;23.10;9.80;;;;;;4866849;29;20072;-89
2023/08/05 14:11:09;;;;;;;2.95;1.77;;;23.00;7.20;;;;;;4868074;29;20064;-88
2023/08/05 14:13:56;;;;;;;3.17;2.00;;;22.60;7.70;;;;;;4903452;29;20153;-88
2023/08/05 14:16:45;;;;;;;2.95;1.60;;;22.30;6.90;;;;;;4944611;29;20047;-89
2023/08/05 14:19:33;;;;;;;2.67;2.03;;;22.00;7.60;;;;;;4926688;29;20137;-86
2023/08/05 14:22:20;;;;;;;3.00;2.00;;;21.80;7.40;;;;;;4933418;29;20055;-85
2023/08/05 14:25:08;;;;;;;2.13;1.60;;;21.80;8.50;;;;;;4949216;29;20054;-89
2023/08/05 14:27:58;;;;;;;5.10;1.60;;;21.90;5.10;;;;;;4921831;29;20739;-89
2023/08/05 14:30:46;;;;;;;2.70;1.63;;;22.40;7.50;;;;;;4940392;29;20048;-86
2023/08/05 14:33:38;;;;;;;4.57;1.70;;;22.80;7.20;;;;;;4939420;29;20054;-90
2023/08/05 14:36:25;;;;;;;;;;;23.10;7.10;;;;;;4956417;29;20047;-88
2023/08/05 14:39:16;;;;;;;1.60;1.30;;;23.80;4.70;;;;;;4946430;29;19942;-87
2023/08/05 14:42:03;;;;;;;1.52;1.42;;;24.10;1.00;;;;;;4940367;29;20051;-89
2023/08/05 14:44:51;;;;;;;2.17;1.67;;;25.10;1.00;;;;;;4942707;29;20062;-86
2023/08/05 14:47:40;;;;;;;2.60;1.33;;;25.90;1.70;;;;;;4948670;29;20494;-85
2023/08/05 14:50:27;;;;;;;3.05;1.50;;;26.70;1.00;;;;;;4937221;29;20048;-91
2023/08/05 14:53:15;;;;;;;3.47;1.48;;;26.90;1.00;;;;;;4925920;29;20391;-86
2023/08/05 14:56:04;;;;;;;3.63;1.70;;;26.80;1.00;;;;;;4925665;29;20056;-88
2023/08/05 14:59:07;;;;;;;2.00;1.33;;;27.70;1.00;;;;;;4921578;29;20488;-88
2023/08/05 15:01:54;;;;;;;2.55;1.73;;;26.90;1.00;;;;;;4944159;29;20087;-88
2023/08/05 15:04:42;;;;;;;1.50;1.40;;;27.10;1.00;;;;;;4942967;29;20086;-88
2023/08/05 15:07:31;;;;;;;1.73;1.50;;;27.70;1.00;;;;;;4943059;29;20048;-88
2023/08/05 15:10:19;;;;;;;2.33;1.73;;;28.90;1.00;;;;;;4936410;29;20043;-89
2023/08/05 15:13:06;;;;;;;2.90;1.70;;;28.70;1.00;;;;;;4942237;29;20451;-87
2023/08/05 15:16:16;;;;;;;1.60;1.23;;;28.20;1.00;;;;;;4945053;29;20130;-91
2023/08/05 15:19:24;;;;;;;4.78;1.50;;;28.40;1.00;;;;;;4931968;29;20471;-89
2023/08/05 15:22:19;;;;;;;2.08;1.67;;;29.40;1.00;;;;;;4930729;29;20075;-89
2023/08/05 15:25:13;;;;;;;1.83;1.48;;;29.10;1.00;;;;;;4946222;29;20228;-89
2023/08/05 15:28:00;;;;;;;3.10;2.10;;;27.20;1.00;;;;;;4942069;29;20542;-89
2023/08/05 15:30:48;;;;;;;2.53;1.85;;;25.90;1.00;;;;;;4924990;29;20048;-87
2023/08/05 15:33:37;;;;;;;3.00;1.95;;;24.90;1.00;;;;;;4933152;29;20048;-91
2023/08/05 15:36:24;;;;;;;2.28;1.80;;;24.40;1.00;;;;;;4936086;29;20054;-88
2023/08/05 15:39:12;;;;;;;2.92;1.98;;;23.80;1.00;;;;;;4916684;29;20063;-88
2023/08/05 15:42:00;;;;;;;2.47;2.00;;;23.30;1.00;;;;;;4946193;29;20367;-90
2023/08/05 15:44:48;;;;;;;2.15;1.52;;;23.10;1.00;;;;;;4940285;29;20058;-90
2023/08/05 15:48:23;;;;;;;;;;;;;;;;;;;;;
2023/08/05 15:51:43;;;;;;;5.05;1.88;;;23.50;5.80;;;;;;4941395;29;20091;-91
2023/08/05 15:54:31;;;;;;;1.90;1.60;;;23.60;1.00;;;;;;4940804;29;20134;-90
2023/08/05 15:58:33;;;;;;;;;;;;;;;;;;;;;
2023/08/05 16:18:46;;;;;;;2.88;2.42;;;21.20;29.90;;;;;;4922502;29;20053;-90
2023/08/05 16:21:49;;;;;;;;;;;;;;;;;;;;;
2023/08/05 16:24:42;;;;;;;3.92;2.20;;;21.30;25.50;;;;;;4925063;29;20133;-87
2023/08/05 16:27:33;;;;;;;3.03;2.47;;;21.20;33.80;;;;;;4923878;29;20456;-87
2023/08/05 16:30:22;;;;;;;3.33;2.55;;;21.20;40.30;;;;;;4931792;29;20048;-88
2023/08/05 16:33:35;;;;;;;17.88;13.23;;;21.20;35.50;;;;;;4937826;29;20036;-88
2023/08/05 16:36:35;;;;;;;;;;;;;;;;;;;;;
2023/08/05 16:44:06;;;;;;;;;;;;;;;;;;;;;
2023/08/05 16:47:40;;;;;;;;;;;;;;;;;;;;;
2023/08/05 16:51:00;;;;;;;5.10;2.30;;;20.60;32.40;;;;;;4866448;29;20042;-82
2023/08/05 16:58:52;;;;;;;7.20;4.18;;;20.40;52.40;;;;;;4922418;23;20142;-88
2023/08/05 17:01:40;;;;;;;3.83;2.70;;;20.30;54.20;;;;;;4928673;29;20108;-93
2023/08/05 17:04:28;;;;;;;4.43;2.92;;;20.10;65.00;;;;;;4936126;29;20047;-89
2023/08/05 17:07:15;;;;;;;2.92;2.28;;;20.00;56.80;;;;;;4944305;29;20390;-92
2023/08/05 17:10:04;;;;;;;7.13;2.47;;;19.80;58.60;;;;;;4926121;29;20066;-90